Route Details

Aircraft Information
Group: Trans-Pacific Ops
Types: B744, MD11
Route Data
Distance: 2981nm
Duration: 7h 25m
Origin METAR: PANC 072335Z 06005KT 10SM -SN OVC050 M04/M07 A2949 RMK AO2 SNB35 P0000 T10441067
Dest. METAR: RJAA 072330Z 02014KT 9999 FEW020 BKN045 08/04 Q1015 NOSIG RMK 1CU020 7SC045 A2999
Freight Data
(for Feb 8, 2023)
Load Factor:
9.3%
Manifested Cargo: 18,355lbs
Financial History
Total Freight: 1,277,018lbs
Average Load: 0lbs/flt
Fuel Used: 1,807,916lbs
Avg. Fuel Used: 0lbs/flt
Fuel Expense: $1,508,884
Avg. Fuel Expense: $0
Avg. Fuel Cost: $0/lbs
Total Gross Income: $3,853,161
Pilot Pay: $3,872
Total Expenses: $512,378
Total Revenue: $1,794,234
Average Revenue: $0

Capitol Logistics 837




PANC
Ted Stevens Anchorage International Airport
Anchorage, Alaska
RJAA
Tokyo-Narita International Airport
Tokyo,

Activity Log

Date Flight Route Aircraft Duration
10/11/2022 CPX837 DCT NODLE R220 NICHO DCT ORCCA R580 OATIS Y802 OLDIV Y809 SUPOK SUPOKE B744 8h 14m
07/29/2022 CPX837 NODLE R220 NOSHO/N0494F370 R220 NULUK/N0496F380 R220 NIKLL/N0498F390 R220 NOGAL/N0487F400 R220 NANAC Y810 OLDIV Y809 SUPOK SUPOKN B744 7h 08m
07/03/2022 CPX32 NODLE R220 NEONN G349 MARCC G583 BISIV Y116 AWE ASIBE TME TOBBY Y10 LARCH Y302 JUGEM Y30 SWAMP SWAMSA B744 6h 51m
09/23/2021 CPX32 NODLE NICHO NIKLL NIPPI R220 NOGAL NANAC SWAMP B744 7h 19m
09/14/2021 CPX32 NODLE R220 NEONN G349 MARCC G583 BISIV Y116 AWE ASIBE TME TOBBY Y10 LARCH Y302 JUGEM Y30 SWAMP SWAMSA B763 8h 08m
09/05/2021 CPX32 NODLE R220 NANZA R220 NIKLL R220 NANAC Y810 ARMOR Y810 KETAR Y811 MELON B763 7h 23m
04/16/2021 CPX32 NODLE R220 NANZA R220 NIKLL R220 NANAC Y810 ARMOR Y810 KETAR Y811 MELON B744 7h 00m
08/31/2020 CPX32 NODLE R220 NANZA R220 NIKLL R220 NANAC Y810 ARMOR Y810 KETAR Y811 MELON B763 7h 09m
12/02/2019 CPX32 NODLE R220 NANZA R220 NIKLL R220 NANAC Y810 ARMOR Y810 KETAR Y811 MELON B77L 8h 15m
09/13/2019 CPX32 NODLE R220 NANZA R220 NIKLL R220 NANAC Y810 ARMOR Y810 KETAR Y811 MELON B763 7h 54m
09/07/2019 CPX32 TED J501 VIDDA/N0455F380 J501 BET NEONN G349 KIVAK B932 BAMOK M152 RAPAK/N0456F400 M152 ODERI B932 TBE V4 OBE Y110 RACKO Z14 CAVES V22 MQE IXE SWAMP SWAMPN B763 7h 50m
07/10/2019 CPX32 NODLE R220 NANZA R220 NIKLL R220 NANAC Y810 ARMOR Y810 KETAR Y811 MELON B763 7h 04m
07/07/2019 CPX32 NODLE R220 NANZA R220 NIKLL R220 NANAC Y810 ARMOR Y810 KETAR Y811 MELON B763 7h 25m
06/17/2019 CPX32 NODLE R220 NANZA R220 NIKLL R220 NANAC Y810 ARMOR Y810 KETAR Y811 MELON B763 7h 38m
02/08/2019 CPX32 NODLE R220 NANDY/N0476F320 R220 NYMPH/K0878F330 R220 NUZAN/N0479F330 R220 NOGAL/N0486F340 R220 NUBDA/N0484F350 R220 NANAC/N0473F340 Y810 KETAR Y811 MELON ELGAR B763 7h 09m
01/23/2019 CPX32 NODLE R220 NANZA R220 NIKLL R220 NANAC Y810 ARMOR Y810 KETAR Y811 MELON B763 7h 23m
12/31/2018 CPX506 NODLE R220 NANZA R220 NIKLL R220 NANAC Y810 ARMOR Y810 KETAR Y811 MELON B763 7h 34m
12/21/2018 CPX505 NODLE R220 NANAC Y810 KETAR Y811 MELON ELGAR B763 7h 33m